Terminal Aerodrome Forecast
Issued by NWS Amarillo, TX

Home | Current Version | Previous Version | Text Only | Print | Product List | Glossary On
Versions: 1 2 3 4 5 6 7 8 9 10 11 12 13 14
000
FTUS44 KAMA 302300
TAFAMA
TAF
KAMA 302320Z 0100/0124 22015KT P6SM FEW070
     FM010200 23010KT P6SM SKC
     FM011400 30008KT P6SM SKC
     FM012000 25010KT P6SM SCT200=

USA.gov is the U.S. government's official web portal to all federal, state and local government web resources and services.